createdAt,value
2019-02-18T00:01:03.583Z,55.18
2019-02-18T00:03:33.411Z,55.25
2019-02-18T00:06:03.231Z,55.20
2019-02-18T00:08:33.788Z,55.33
2019-02-18T00:11:03.429Z,55.42
2019-02-18T00:13:33.156Z,55.48
2019-02-18T00:16:03.187Z,55.54
2019-02-18T00:18:32.934Z,55.40
2019-02-18T00:21:02.670Z,55.32
2019-02-18T00:23:32.417Z,55.68
2019-02-18T00:26:02.134Z,55.49
2019-02-18T00:28:31.842Z,55.20
2019-02-18T00:31:01.485Z,55.47
2019-02-18T00:33:31.224Z,55.66
2019-02-18T00:36:00.900Z,55.67
2019-02-18T00:38:30.723Z,55.52
2019-02-18T00:41:00.473Z,55.45
2019-02-18T00:43:30.590Z,55.65
2019-02-18T00:46:00.346Z,55.71
2019-02-18T00:48:30.110Z,55.65
2019-02-18T00:50:59.861Z,55.37
2019-02-18T00:53:29.607Z,55.80
2019-02-18T00:55:59.359Z,55.87
2019-02-18T00:58:29.220Z,56.19
2019-02-18T01:00:58.945Z,56.04
2019-02-18T01:03:28.766Z,56.20
2019-02-18T01:05:58.498Z,56.29
2019-02-18T01:08:28.275Z,56.51
2019-02-18T01:10:58.109Z,56.53
2019-02-18T01:13:27.943Z,56.59
2019-02-18T01:15:57.637Z,56.97
2019-02-18T01:18:27.317Z,57.29
2019-02-18T01:20:57.032Z,57.39
2019-02-18T01:23:26.729Z,57.25
2019-02-18T01:25:56.362Z,57.35
2019-02-18T01:28:26.202Z,57.67
2019-02-18T01:30:55.943Z,57.38
2019-02-18T01:33:25.669Z,57.42
2019-02-18T01:35:55.371Z,57.63
2019-02-18T01:38:25.145Z,57.89
2019-02-18T01:40:54.799Z,58.03
2019-02-18T01:43:24.508Z,58.19
2019-02-18T01:45:54.143Z,58.16
2019-02-18T01:48:23.814Z,58.02
2019-02-18T01:50:53.459Z,58.15
2019-02-18T01:53:23.123Z,58.49
2019-02-18T01:55:52.897Z,58.70
2019-02-18T01:58:22.659Z,58.61
2019-02-18T02:00:52.355Z,58.73
2019-02-18T02:03:22.023Z,58.66
2019-02-18T02:05:51.820Z,58.95
2019-02-18T02:08:21.471Z,58.77
2019-02-18T02:10:51.265Z,58.84
2019-02-18T02:13:32.843Z,58.89
2019-02-18T02:16:04.298Z,58.78
2019-02-18T02:18:34.028Z,59.35
2019-02-18T02:21:03.859Z,59.31
2019-02-18T02:23:33.589Z,59.28
2019-02-18T02:26:03.523Z,59.46
2019-02-18T02:28:33.481Z,59.53
2019-02-18T02:31:03.373Z,59.21
2019-02-18T02:33:33.017Z,59.36
2019-02-18T02:36:02.765Z,59.30
2019-02-18T02:38:33.645Z,59.43
2019-02-18T02:41:03.331Z,59.52
2019-02-18T02:43:33.247Z,59.84
2019-02-18T02:46:03.016Z,59.73
2019-02-18T02:48:32.803Z,59.68
2019-02-18T02:51:02.561Z,59.79
2019-02-18T02:53:32.368Z,59.90
2019-02-18T02:56:02.025Z,59.71
2019-02-18T02:58:31.730Z,59.90
2019-02-18T03:01:01.372Z,60.04
2019-02-18T03:03:31.046Z,60.05
2019-02-18T03:06:00.801Z,59.87
2019-02-18T03:08:30.566Z,59.92
2019-02-18T03:11:00.246Z,59.88
2019-02-18T03:13:29.925Z,59.86
2019-02-18T03:15:59.613Z,59.64
2019-02-18T03:18:29.242Z,60.22
2019-02-18T03:20:59.072Z,60.55
2019-02-18T03:23:28.726Z,60.80
2019-02-18T03:25:58.428Z,60.64
2019-02-18T03:28:44.676Z,60.63
2019-02-18T03:31:24.491Z,60.42
2019-02-18T03:34:04.668Z,60.50
2019-02-18T03:36:34.554Z,60.27
2019-02-18T03:39:04.925Z,60.22
2019-02-18T03:41:34.765Z,60.40
2019-02-18T03:44:04.438Z,60.42
2019-02-18T03:46:34.170Z,60.43
2019-02-18T03:49:03.903Z,60.36
2019-02-18T03:51:33.552Z,60.43
2019-02-18T03:54:04.044Z,60.55
2019-02-18T03:56:33.858Z,60.38
2019-02-18T03:59:03.685Z,60.46
2019-02-18T04:01:33.396Z,60.60
2019-02-18T04:04:03.265Z,60.72
2019-02-18T04:06:32.917Z,60.83
2019-02-18T04:09:02.779Z,60.90
2019-02-18T04:11:32.508Z,60.85
2019-02-18T04:14:02.251Z,60.82
2019-02-18T04:16:31.982Z,60.82
2019-02-18T04:19:01.661Z,60.62
2019-02-18T04:21:31.294Z,60.67
2019-02-18T04:24:00.956Z,60.77
2019-02-18T04:26:30.645Z,60.93
2019-02-18T04:29:00.373Z,61.00
2019-02-18T04:31:30.048Z,61.08
2019-02-18T04:33:59.710Z,61.11
2019-02-18T04:36:29.475Z,60.99
2019-02-18T04:38:59.586Z,61.01
2019-02-18T04:41:29.299Z,61.17
2019-02-18T04:43:58.936Z,61.43
2019-02-18T04:46:28.612Z,61.40
2019-02-18T04:48:58.309Z,61.43
2019-02-18T04:51:28.014Z,61.44
2019-02-18T04:53:57.913Z,61.66
2019-02-18T04:56:27.595Z,61.75
2019-02-18T04:58:57.341Z,61.93
2019-02-18T05:01:26.981Z,62.04
2019-02-18T05:03:56.703Z,61.97
2019-02-18T05:06:26.377Z,62.17
2019-02-18T05:09:05.104Z,62.33
2019-02-18T05:11:27.614Z,62.31
2019-02-18T05:13:57.363Z,62.39
2019-02-18T05:16:27.055Z,62.33
2019-02-18T05:18:56.763Z,62.17
2019-02-18T05:21:26.523Z,62.49
2019-02-18T05:23:56.207Z,62.58
2019-02-18T05:26:25.915Z,62.54
2019-02-18T05:28:55.589Z,62.63
2019-02-18T05:31:25.333Z,62.75
2019-02-18T05:33:56.438Z,62.93
2019-02-18T05:36:26.125Z,62.83
2019-02-18T05:38:55.839Z,62.88
2019-02-18T05:41:25.530Z,63.07
2019-02-18T05:43:55.218Z,63.24
2019-02-18T05:46:24.916Z,62.97
2019-02-18T05:48:54.632Z,62.98
2019-02-18T05:51:24.383Z,62.80
2019-02-18T05:53:54.030Z,62.94
2019-02-18T05:56:23.800Z,62.81
2019-02-18T05:58:53.550Z,62.86
2019-02-18T06:01:23.261Z,62.84
2019-02-18T06:03:52.916Z,62.82
2019-02-18T06:06:22.616Z,62.78
2019-02-18T06:08:52.243Z,62.80
2019-02-18T06:11:21.991Z,62.78
2019-02-18T06:13:51.679Z,62.70
2019-02-18T06:16:21.348Z,62.50
2019-02-18T06:18:51.100Z,62.77
2019-02-18T06:21:20.754Z,62.87
2019-02-18T06:23:50.459Z,62.67
2019-02-18T06:26:20.224Z,62.99
2019-02-18T06:28:49.925Z,62.90
2019-02-18T06:31:19.568Z,62.74
2019-02-18T06:33:49.300Z,62.85
2019-02-18T06:36:18.987Z,62.91
2019-02-18T06:38:48.737Z,62.74
2019-02-18T06:41:18.492Z,62.92
2019-02-18T06:43:48.175Z,62.75
2019-02-18T06:46:22.213Z,62.55
2019-02-18T06:48:53.575Z,62.48
2019-02-18T06:51:23.296Z,62.67
2019-02-18T06:53:52.991Z,62.54
2019-02-18T06:56:24.375Z,62.77
2019-02-18T06:58:55.833Z,62.50
2019-02-18T07:01:33.295Z,62.65
2019-02-18T07:04:04.659Z,62.79
2019-02-18T07:06:38.928Z,62.47
2019-02-18T07:09:13.324Z,62.51
2019-02-18T07:11:44.648Z,62.54
2019-02-18T07:14:14.372Z,62.16
2019-02-18T07:16:44.067Z,62.30
2019-02-18T07:19:13.832Z,61.97
2019-02-18T07:21:43.553Z,61.70
2019-02-18T07:24:15.285Z,61.77
2019-02-18T07:26:44.670Z,61.51
2019-02-18T07:29:14.429Z,61.26
2019-02-18T07:31:44.123Z,61.15
2019-02-18T07:34:13.875Z,61.13
2019-02-18T07:36:43.527Z,60.75
2019-02-18T07:39:13.237Z,60.44
2019-02-18T07:41:42.975Z,60.29
2019-02-18T07:44:12.718Z,60.01
2019-02-18T07:46:42.381Z,59.75
2019-02-18T07:49:12.095Z,59.41
2019-02-18T07:51:41.831Z,59.05
2019-02-18T07:54:11.523Z,58.95
2019-02-18T07:56:41.268Z,58.87
2019-02-18T07:59:11.003Z,58.45
2019-02-18T08:01:40.645Z,58.18
2019-02-18T08:04:10.389Z,58.00
2019-02-18T08:06:40.076Z,57.66
2019-02-18T08:09:09.743Z,57.49
2019-02-18T08:11:39.584Z,57.07
2019-02-18T08:14:09.250Z,56.90
2019-02-18T08:16:38.946Z,56.40
2019-02-18T08:19:08.762Z,56.11
2019-02-18T08:21:38.503Z,55.81
2019-02-18T08:24:08.264Z,55.69
2019-02-18T08:26:38.045Z,55.41
2019-02-18T08:29:07.688Z,54.94
2019-02-18T08:31:37.449Z,54.64
2019-02-18T08:34:07.133Z,54.11
2019-02-18T08:36:37.042Z,53.71
2019-02-18T08:39:07.925Z,53.64
2019-02-18T08:41:37.709Z,53.29
2019-02-18T08:44:07.393Z,53.04
2019-02-18T08:46:37.120Z,52.77
2019-02-18T08:49:06.811Z,52.60
2019-02-18T08:51:36.867Z,52.58
2019-02-18T08:54:06.659Z,52.41
2019-02-18T08:56:36.419Z,52.17
2019-02-18T08:59:06.279Z,51.89
2019-02-18T09:01:35.942Z,51.28
2019-02-18T09:04:05.678Z,51.02
2019-02-18T09:06:35.439Z,51.04
2019-02-18T09:09:06.618Z,50.74
2019-02-18T09:11:36.295Z,50.55
2019-02-18T09:14:06.002Z,50.48
2019-02-18T09:16:35.672Z,50.06
2019-02-18T09:19:05.553Z,49.88
2019-02-18T09:21:36.004Z,49.60
2019-02-18T09:24:07.711Z,49.55
2019-02-18T09:26:37.422Z,49.22
2019-02-18T09:29:07.127Z,48.61
2019-02-18T09:31:37.123Z,48.64
2019-02-18T09:34:06.895Z,48.63
2019-02-18T09:36:36.714Z,48.19
2019-02-18T09:39:11.434Z,49.69
2019-02-18T09:41:41.219Z,48.27
2019-02-18T09:44:10.879Z,47.93
2019-02-18T09:46:40.712Z,47.52
2019-02-18T09:49:10.391Z,47.04
2019-02-18T09:51:40.133Z,47.05
2019-02-18T09:54:09.857Z,47.19
2019-02-18T09:56:39.633Z,47.12
2019-02-18T09:59:09.352Z,47.03
2019-02-18T10:01:39.210Z,46.70
2019-02-18T10:04:09.062Z,46.72
2019-02-18T10:06:38.773Z,46.82
2019-02-18T10:09:08.682Z,46.50
2019-02-18T10:11:38.359Z,46.20
2019-02-18T10:14:08.183Z,46.12
2019-02-18T10:16:37.884Z,45.86
2019-02-18T10:19:07.640Z,45.82
2019-02-18T10:21:37.412Z,45.83
2019-02-18T10:24:07.124Z,45.93
2019-02-18T10:26:36.878Z,46.22
2019-02-18T10:29:06.656Z,45.56
2019-02-18T10:31:36.356Z,45.01
2019-02-18T10:34:06.072Z,45.20
2019-02-18T10:36:36.088Z,45.31
2019-02-18T10:39:07.205Z,45.14
2019-02-18T10:41:36.931Z,45.30
2019-02-18T10:44:06.679Z,45.10
2019-02-18T10:46:36.594Z,44.98
2019-02-18T10:49:19.041Z,44.81
2019-02-18T10:51:37.788Z,45.04
2019-02-18T10:54:07.977Z,45.07
2019-02-18T10:56:37.716Z,45.31
2019-02-18T10:59:07.602Z,44.31
2019-02-18T11:01:37.270Z,44.45
2019-02-18T11:04:07.065Z,44.44
2019-02-18T11:06:37.083Z,44.00
2019-02-18T11:09:10.138Z,44.04
2019-02-18T11:11:39.980Z,44.24
2019-02-18T11:14:09.684Z,43.99
2019-02-18T11:16:39.785Z,43.56
2019-02-18T11:19:09.526Z,43.39
2019-02-18T11:21:39.233Z,43.26
2019-02-18T11:24:09.059Z,43.43
2019-02-18T11:26:38.788Z,42.91
2019-02-18T11:29:08.903Z,42.94
2019-02-18T11:31:38.621Z,43.04
2019-02-18T11:34:08.411Z,42.90
2019-02-18T11:36:38.528Z,43.01
2019-02-18T11:39:11.854Z,43.11
2019-02-18T11:41:42.096Z,43.22
2019-02-18T11:44:11.791Z,43.64
2019-02-18T11:46:41.610Z,43.58
2019-02-18T11:49:11.301Z,42.25
2019-02-18T11:51:40.958Z,41.51
2019-02-18T11:54:10.674Z,41.06
2019-02-18T11:56:40.420Z,40.82
2019-02-18T11:59:10.192Z,41.72
2019-02-18T12:01:40.010Z,41.29
2019-02-18T12:04:09.818Z,41.26
2019-02-18T12:06:39.498Z,41.33
2019-02-18T12:09:09.449Z,40.90
2019-02-18T12:11:39.375Z,41.04
2019-02-18T12:14:09.524Z,41.81
2019-02-18T12:16:39.362Z,41.74
2019-02-18T12:19:09.284Z,41.94
2019-02-18T12:21:39.119Z,42.13
2019-02-18T12:24:08.858Z,42.03
2019-02-18T12:26:38.505Z,42.44
2019-02-18T12:29:08.193Z,42.15
2019-02-18T12:31:37.980Z,41.49
2019-02-18T12:34:07.699Z,41.38
2019-02-18T12:36:37.487Z,41.76
2019-02-18T12:39:09.278Z,41.96
2019-02-18T12:41:48.195Z,41.77
2019-02-18T12:44:10.421Z,40.63
2019-02-18T12:46:40.134Z,40.72
2019-02-18T12:49:09.908Z,41.54
2019-02-18T12:51:39.613Z,41.91
2019-02-18T12:54:09.792Z,41.55
2019-02-18T12:56:39.643Z,41.75
2019-02-18T12:59:09.401Z,41.53
2019-02-18T13:01:39.982Z,40.95
2019-02-18T13:04:09.714Z,40.92
2019-02-18T13:06:39.618Z,40.45
2019-02-18T13:09:09.911Z,40.04
2019-02-18T13:11:39.639Z,39.87
2019-02-18T13:14:09.505Z,39.38
2019-02-18T13:16:39.232Z,39.58
2019-02-18T13:19:09.150Z,39.14
2019-02-18T13:21:38.832Z,38.77
2019-02-18T13:24:08.662Z,38.56
2019-02-18T13:26:38.843Z,38.15
2019-02-18T13:29:08.534Z,37.97
2019-02-18T13:31:38.377Z,37.88
2019-02-18T13:34:08.157Z,37.72
2019-02-18T13:36:37.971Z,37.04
2019-02-18T13:39:08.418Z,36.64
2019-02-18T13:41:38.539Z,36.36
2019-02-18T13:44:08.396Z,36.27
2019-02-18T13:46:38.091Z,36.35
2019-02-18T13:49:07.912Z,36.24
2019-02-18T13:51:37.818Z,35.75
2019-02-18T13:54:07.473Z,35.35
2019-02-18T13:56:37.422Z,35.06
2019-02-18T13:59:07.232Z,34.56
2019-02-18T14:01:37.071Z,34.63
2019-02-18T14:04:06.958Z,34.67
2019-02-18T14:06:36.656Z,33.68
2019-02-18T14:09:07.111Z,33.65
2019-02-18T14:11:36.995Z,33.77
2019-02-18T14:14:06.933Z,34.23
2019-02-18T14:16:36.766Z,34.39
2019-02-18T14:19:06.739Z,34.31
2019-02-18T14:21:36.559Z,34.57
2019-02-18T14:24:06.862Z,34.63
2019-02-18T14:26:36.660Z,34.70
2019-02-18T14:29:06.479Z,34.64
2019-02-18T14:31:36.295Z,34.04
2019-02-18T14:34:07.075Z,34.32
2019-02-18T14:36:37.353Z,34.35
2019-02-18T14:39:10.524Z,34.82
2019-02-18T14:41:40.324Z,35.29
2019-02-18T14:44:10.190Z,35.82
2019-02-18T14:46:39.989Z,36.43
2019-02-18T14:49:09.853Z,36.93
2019-02-18T14:51:40.034Z,37.29
2019-02-18T14:54:09.918Z,37.44
2019-02-18T14:56:41.051Z,37.75
2019-02-18T14:59:10.851Z,37.56
2019-02-18T15:01:40.775Z,38.02
2019-02-18T15:04:10.575Z,37.90
2019-02-18T15:06:40.416Z,37.72
2019-02-18T15:09:10.534Z,37.95
2019-02-18T15:11:40.282Z,38.22
2019-02-18T15:14:10.087Z,38.70
2019-02-18T15:16:39.922Z,39.08
2019-02-18T15:19:10.083Z,39.58
2019-02-18T15:21:39.957Z,39.90
2019-02-18T15:24:09.822Z,40.07
2019-02-18T15:26:39.629Z,40.53
2019-02-18T15:29:09.405Z,40.49
2019-02-18T15:31:39.144Z,40.84
2019-02-18T15:34:09.323Z,41.12
2019-02-18T15:36:41.648Z,41.40
2019-02-18T15:39:11.523Z,41.66
2019-02-18T15:41:41.253Z,42.02
2019-02-18T15:44:11.886Z,42.40
2019-02-18T15:46:41.744Z,42.74
2019-02-18T15:49:11.653Z,42.93
2019-02-18T15:51:41.572Z,43.18
2019-02-18T15:54:11.684Z,43.36
2019-02-18T15:56:41.621Z,43.43
2019-02-18T15:59:11.373Z,43.52
2019-02-18T16:01:41.664Z,43.69
2019-02-18T16:04:11.340Z,44.23
2019-02-18T16:06:41.325Z,44.48
2019-02-18T16:09:11.417Z,44.56
2019-02-18T16:11:41.143Z,44.53
2019-02-18T16:14:10.972Z,44.82
2019-02-18T16:16:40.783Z,45.14
2019-02-18T16:19:10.621Z,45.27
2019-02-18T16:21:40.388Z,45.48
2019-02-18T16:24:19.741Z,45.79
2019-02-18T16:26:41.553Z,45.99
2019-02-18T16:29:11.400Z,46.13
2019-02-18T16:31:41.414Z,46.07
2019-02-18T16:34:11.821Z,46.29
2019-02-18T16:36:41.657Z,46.52
2019-02-18T16:39:12.581Z,46.76
2019-02-18T16:41:42.253Z,47.03
2019-02-18T16:44:11.974Z,47.35
2019-02-18T16:46:41.746Z,47.52
2019-02-18T16:49:11.918Z,47.64
2019-02-18T16:51:41.606Z,45.80
2019-02-18T16:54:11.364Z,45.02
2019-02-18T16:56:41.164Z,44.09
2019-02-18T16:59:10.925Z,44.00
2019-02-18T17:01:40.760Z,43.36
2019-02-18T17:04:10.547Z,43.28
2019-02-18T17:06:40.273Z,43.07
2019-02-18T17:09:13.501Z,42.87
2019-02-18T17:11:43.425Z,42.88
2019-02-18T17:14:13.198Z,42.91
2019-02-18T17:16:42.923Z,42.88
2019-02-18T17:19:12.734Z,42.85
2019-02-18T17:21:42.513Z,43.10
2019-02-18T17:24:12.243Z,43.22
2019-02-18T17:26:41.895Z,43.63
2019-02-18T17:29:12.058Z,43.79
2019-02-18T17:31:41.753Z,44.07
2019-02-18T17:34:11.544Z,44.30
2019-02-18T17:36:41.265Z,44.67
2019-02-18T17:39:11.402Z,44.73
2019-02-18T17:41:41.213Z,45.02
2019-02-18T17:44:10.977Z,45.28
2019-02-18T17:46:40.643Z,45.54
2019-02-18T17:49:10.393Z,45.81
2019-02-18T17:51:40.165Z,47.24
2019-02-18T17:54:09.995Z,46.98
2019-02-18T17:56:39.741Z,46.28
2019-02-18T17:59:09.384Z,46.45
2019-02-18T18:01:39.246Z,46.66
2019-02-18T18:04:09.159Z,46.89
2019-02-18T18:06:39.084Z,47.06
2019-02-18T18:09:09.450Z,47.34
2019-02-18T18:11:39.223Z,47.51
2019-02-18T18:14:08.907Z,47.57
2019-02-18T18:16:38.587Z,47.83
2019-02-18T18:19:09.551Z,47.99
2019-02-18T18:21:39.505Z,48.35
2019-02-18T18:24:09.449Z,48.58
2019-02-18T18:26:39.281Z,48.95
2019-02-18T18:29:09.027Z,49.46
2019-02-18T18:31:38.976Z,49.58
2019-02-18T18:34:08.772Z,49.92
2019-02-18T18:36:38.545Z,50.33
2019-02-18T18:39:08.330Z,50.68
2019-02-18T18:41:38.056Z,51.02
2019-02-18T18:44:07.828Z,51.42
2019-02-18T18:46:37.590Z,51.64
2019-02-18T18:49:07.277Z,51.92
2019-02-18T18:51:37.455Z,52.13
2019-02-18T18:54:07.236Z,52.38
2019-02-18T18:56:37.032Z,52.73
2019-02-18T18:59:06.806Z,52.97
2019-02-18T19:01:36.481Z,53.32
2019-02-18T19:04:06.340Z,53.55
2019-02-18T19:06:36.081Z,53.83
2019-02-18T19:09:06.656Z,54.11
2019-02-18T19:11:36.410Z,54.29
2019-02-18T19:14:06.134Z,54.61
2019-02-18T19:16:35.924Z,54.84
2019-02-18T19:19:06.098Z,55.10
2019-02-18T19:21:35.925Z,55.26
2019-02-18T19:24:05.775Z,55.45
2019-02-18T19:26:35.584Z,55.57
2019-02-18T19:29:05.339Z,55.53
2019-02-18T19:31:35.168Z,55.57
2019-02-18T19:34:04.973Z,55.53
2019-02-18T19:36:34.729Z,55.66
2019-02-18T19:39:05.175Z,55.61
2019-02-18T19:41:34.905Z,55.74
2019-02-18T19:44:04.693Z,55.90
2019-02-18T19:46:34.746Z,56.01
2019-02-18T19:49:04.639Z,56.05
2019-02-18T19:51:34.346Z,56.07
2019-02-18T19:54:04.150Z,56.24
2019-02-18T19:56:33.883Z,56.32
2019-02-18T19:59:03.603Z,56.41
2019-02-18T20:01:33.281Z,56.59
2019-02-18T20:04:03.059Z,56.75
2019-02-18T20:06:32.800Z,56.87
2019-02-18T20:09:02.729Z,56.95
2019-02-18T20:11:32.422Z,56.99
2019-02-18T20:14:02.478Z,56.96
2019-02-18T20:16:32.224Z,56.96
2019-02-18T20:19:02.093Z,57.07
2019-02-18T20:21:31.916Z,57.08
2019-02-18T20:24:01.668Z,57.24
2019-02-18T20:26:31.536Z,57.39
2019-02-18T20:29:01.211Z,57.34
2019-02-18T20:31:30.918Z,57.49
2019-02-18T20:34:00.662Z,57.46
2019-02-18T20:36:30.467Z,57.39
2019-02-18T20:39:00.205Z,57.57
2019-02-18T20:41:30.556Z,57.62
2019-02-18T20:44:07.294Z,57.53
2019-02-18T20:46:31.892Z,57.48
2019-02-18T20:49:01.579Z,57.65
2019-02-18T20:51:31.385Z,57.68
2019-02-18T20:54:01.159Z,57.62
2019-02-18T20:56:31.192Z,57.63
2019-02-18T20:59:00.893Z,57.74
2019-02-18T21:01:30.637Z,57.78
2019-02-18T21:04:00.347Z,57.73
2019-02-18T21:06:29.990Z,57.84
2019-02-18T21:08:59.644Z,58.03
2019-02-18T21:11:29.492Z,57.97
2019-02-18T21:13:59.178Z,58.12
2019-02-18T21:16:28.942Z,58.17
2019-02-18T21:18:58.616Z,58.34
2019-02-18T21:21:28.391Z,57.99
2019-02-18T21:23:58.573Z,58.11
2019-02-18T21:26:28.283Z,58.16
2019-02-18T21:28:58.114Z,58.43
2019-02-18T21:31:27.838Z,58.46
2019-02-18T21:33:57.538Z,58.51
2019-02-18T21:36:27.303Z,58.51
2019-02-18T21:38:57.068Z,59.20
2019-02-18T21:41:26.845Z,58.68
2019-02-18T21:43:56.737Z,58.68
2019-02-18T21:46:26.372Z,58.52
2019-02-18T21:48:56.091Z,58.71
2019-02-18T21:51:25.833Z,58.91
2019-02-18T21:53:56.815Z,58.86
2019-02-18T21:56:26.596Z,58.62
2019-02-18T21:58:57.223Z,58.76
2019-02-18T22:01:27.025Z,58.81
2019-02-18T22:03:56.855Z,59.14
2019-02-18T22:06:26.969Z,59.25
2019-02-18T22:08:56.598Z,59.09
2019-02-18T22:11:26.318Z,59.14
2019-02-18T22:13:55.980Z,59.27
2019-02-18T22:16:25.721Z,59.47
2019-02-18T22:18:55.369Z,59.41
2019-02-18T22:21:25.427Z,59.42
2019-02-18T22:23:55.213Z,59.41
2019-02-18T22:26:24.999Z,59.53
2019-02-18T22:28:54.711Z,59.52
2019-02-18T22:31:24.427Z,59.68
2019-02-18T22:33:54.231Z,59.65
2019-02-18T22:36:24.282Z,59.81
2019-02-18T22:38:53.926Z,59.79
2019-02-18T22:41:23.637Z,59.85
2019-02-18T22:43:53.404Z,59.93
2019-02-18T22:46:23.139Z,60.07
2019-02-18T22:48:52.856Z,60.02
2019-02-18T22:51:22.847Z,60.33
2019-02-18T22:53:52.549Z,60.36
2019-02-18T22:56:22.212Z,60.36
2019-02-18T22:58:51.919Z,60.43
2019-02-18T23:01:22.506Z,60.26
2019-02-18T23:03:52.250Z,60.24
2019-02-18T23:06:22.542Z,60.21
2019-02-18T23:08:52.261Z,60.28
2019-02-18T23:11:22.000Z,60.22
2019-02-18T23:13:51.658Z,60.33
2019-02-18T23:16:21.393Z,60.36
2019-02-18T23:18:51.416Z,60.39
2019-02-18T23:21:21.630Z,60.49
2019-02-18T23:23:51.330Z,60.56
2019-02-18T23:26:21.052Z,60.71
2019-02-18T23:28:50.718Z,60.69
2019-02-18T23:31:20.448Z,60.67
2019-02-18T23:33:50.321Z,60.81
2019-02-18T23:36:20.527Z,60.97
2019-02-18T23:38:50.186Z,61.04
2019-02-18T23:41:20.085Z,60.92
2019-02-18T23:43:49.823Z,60.98
2019-02-18T23:46:19.749Z,61.13
2019-02-18T23:48:49.534Z,61.33
2019-02-18T23:51:19.224Z,61.34
2019-02-18T23:53:48.913Z,61.37
2019-02-18T23:56:18.688Z,61.41
2019-02-18T23:58:48.397Z,61.30
